sensor_id;sensor_type;location;lat;lon;timestamp;P1;durP1;ratioP1;P2;durP2;ratioP2
40675;SDS011;26359;48.750;9.314;2024-01-10T00:01:07;24.65;;;14.30;;
40675;SDS011;26359;48.750;9.314;2024-01-10T00:03:32;26.27;;;14.65;;
40675;SDS011;26359;48.750;9.314;2024-01-10T00:05:58;29.90;;;16.75;;
40675;SDS011;26359;48.750;9.314;2024-01-10T00:08:23;31.20;;;17.95;;
40675;SDS011;26359;48.750;9.314;2024-01-10T00:10:49;34.13;;;18.55;;
40675;SDS011;26359;48.750;9.314;2024-01-10T00:13:17;33.22;;;18.27;;
40675;SDS011;26359;48.750;9.314;2024-01-10T00:15:42;32.20;;;18.38;;
40675;SDS011;26359;48.750;9.314;2024-01-10T00:18:08;32.58;;;18.52;;
40675;SDS011;26359;48.750;9.314;2024-01-10T00:20:33;34.25;;;18.13;;
40675;SDS011;26359;48.750;9.314;2024-01-10T00:22:59;31.67;;;17.73;;
40675;SDS011;26359;48.750;9.314;2024-01-10T00:25:24;32.90;;;17.02;;
40675;SDS011;26359;48.750;9.314;2024-01-10T00:27:50;28.48;;;16.23;;
40675;SDS011;26359;48.750;9.314;2024-01-10T00:30:15;31.63;;;16.83;;
40675;SDS011;26359;48.750;9.314;2024-01-10T00:32:41;28.70;;;16.98;;
40675;SDS011;26359;48.750;9.314;2024-01-10T00:35:06;34.40;;;17.90;;
40675;SDS011;26359;48.750;9.314;2024-01-10T00:37:32;30.85;;;16.20;;
40675;SDS011;26359;48.750;9.314;2024-01-10T00:39:58;35.70;;;18.13;;
40675;SDS011;26359;48.750;9.314;2024-01-10T00:42:23;32.15;;;18.00;;
40675;SDS011;26359;48.750;9.314;2024-01-10T00:44:49;32.30;;;18.52;;
40675;SDS011;26359;48.750;9.314;2024-01-10T00:47:14;33.13;;;20.30;;
40675;SDS011;26359;48.750;9.314;2024-01-10T00:49:40;34.15;;;19.58;;
40675;SDS011;26359;48.750;9.314;2024-01-10T00:52:05;34.03;;;18.38;;
40675;SDS011;26359;48.750;9.314;2024-01-10T00:54:31;35.40;;;19.52;;
40675;SDS011;26359;48.750;9.314;2024-01-10T00:56:56;31.85;;;18.40;;
40675;SDS011;26359;48.750;9.314;2024-01-10T00:59:22;35.20;;;19.70;;
40675;SDS011;26359;48.750;9.314;2024-01-10T01:01:47;34.63;;;19.02;;
40675;SDS011;26359;48.750;9.314;2024-01-10T01:04:13;31.60;;;18.65;;
40675;SDS011;26359;48.750;9.314;2024-01-10T01:06:38;35.65;;;18.95;;
40675;SDS011;26359;48.750;9.314;2024-01-10T01:09:04;32.38;;;18.83;;
40675;SDS011;26359;48.750;9.314;2024-01-10T01:11:29;31.42;;;16.92;;
40675;SDS011;26359;48.750;9.314;2024-01-10T01:13:55;34.22;;;18.33;;
40675;SDS011;26359;48.750;9.314;2024-01-10T01:16:20;32.75;;;18.58;;
40675;SDS011;26359;48.750;9.314;2024-01-10T01:18:46;33.97;;;18.92;;
40675;SDS011;26359;48.750;9.314;2024-01-10T01:21:11;33.42;;;18.55;;
40675;SDS011;26359;48.750;9.314;2024-01-10T01:23:37;35.75;;;19.08;;
40675;SDS011;26359;48.750;9.314;2024-01-10T01:26:02;30.65;;;18.52;;
40675;SDS011;26359;48.750;9.314;2024-01-10T01:28:29;32.50;;;18.15;;
40675;SDS011;26359;48.750;9.314;2024-01-10T01:30:54;36.92;;;20.08;;
40675;SDS011;26359;48.750;9.314;2024-01-10T01:33:20;31.20;;;18.45;;
40675;SDS011;26359;48.750;9.314;2024-01-10T01:35:46;32.60;;;18.63;;
40675;SDS011;26359;48.750;9.314;2024-01-10T01:38:11;33.17;;;18.92;;
40675;SDS011;26359;48.750;9.314;2024-01-10T01:40:37;35.92;;;19.40;;
40675;SDS011;26359;48.750;9.314;2024-01-10T01:43:17;34.95;;;19.65;;
40675;SDS011;26359;48.750;9.314;2024-01-10T01:45:46;33.35;;;18.88;;
40675;SDS011;26359;48.750;9.314;2024-01-10T01:48:15;35.42;;;19.75;;
40675;SDS011;26359;48.750;9.314;2024-01-10T01:50:40;34.17;;;19.67;;
40675;SDS011;26359;48.750;9.314;2024-01-10T01:53:06;31.88;;;18.60;;
40675;SDS011;26359;48.750;9.314;2024-01-10T01:55:32;37.08;;;19.90;;
40675;SDS011;26359;48.750;9.314;2024-01-10T01:57:58;35.60;;;19.15;;
40675;SDS011;26359;48.750;9.314;2024-01-10T02:00:23;34.00;;;18.73;;
40675;SDS011;26359;48.750;9.314;2024-01-10T02:02:49;31.95;;;19.15;;
40675;SDS011;26359;48.750;9.314;2024-01-10T02:05:15;37.08;;;19.48;;
40675;SDS011;26359;48.750;9.314;2024-01-10T02:07:41;38.40;;;18.92;;
40675;SDS011;26359;48.750;9.314;2024-01-10T02:10:06;37.45;;;19.63;;
40675;SDS011;26359;48.750;9.314;2024-01-10T02:12:32;34.20;;;19.25;;
40675;SDS011;26359;48.750;9.314;2024-01-10T02:14:58;34.20;;;19.52;;
40675;SDS011;26359;48.750;9.314;2024-01-10T02:17:24;32.40;;;18.75;;
40675;SDS011;26359;48.750;9.314;2024-01-10T02:20:06;34.35;;;19.48;;
40675;SDS011;26359;48.750;9.314;2024-01-10T02:22:46;34.67;;;19.08;;
40675;SDS011;26359;48.750;9.314;2024-01-10T02:25:12;34.72;;;18.77;;
40675;SDS011;26359;48.750;9.314;2024-01-10T02:27:39;36.35;;;20.65;;
40675;SDS011;26359;48.750;9.314;2024-01-10T02:30:06;36.63;;;20.20;;
40675;SDS011;26359;48.750;9.314;2024-01-10T02:32:33;36.17;;;19.50;;
40675;SDS011;26359;48.750;9.314;2024-01-10T02:35:00;38.55;;;20.42;;
40675;SDS011;26359;48.750;9.314;2024-01-10T02:37:26;34.95;;;19.50;;
40675;SDS011;26359;48.750;9.314;2024-01-10T02:39:51;36.75;;;19.65;;
40675;SDS011;26359;48.750;9.314;2024-01-10T02:42:17;39.25;;;18.80;;
40675;SDS011;26359;48.750;9.314;2024-01-10T02:44:43;34.35;;;19.13;;
40675;SDS011;26359;48.750;9.314;2024-01-10T02:47:08;32.33;;;19.10;;
40675;SDS011;26359;48.750;9.314;2024-01-10T02:49:35;35.97;;;20.13;;
40675;SDS011;26359;48.750;9.314;2024-01-10T02:52:00;35.25;;;21.45;;
40675;SDS011;26359;48.750;9.314;2024-01-10T02:54:26;39.05;;;20.75;;
40675;SDS011;26359;48.750;9.314;2024-01-10T02:56:51;39.35;;;20.92;;
40675;SDS011;26359;48.750;9.314;2024-01-10T02:59:17;36.38;;;19.73;;
40675;SDS011;26359;48.750;9.314;2024-01-10T03:01:43;36.90;;;20.65;;
40675;SDS011;26359;48.750;9.314;2024-01-10T03:04:08;36.72;;;20.13;;
40675;SDS011;26359;48.750;9.314;2024-01-10T03:06:34;36.80;;;20.42;;
40675;SDS011;26359;48.750;9.314;2024-01-10T03:09:00;38.53;;;19.92;;
40675;SDS011;26359;48.750;9.314;2024-01-10T03:11:25;36.83;;;19.85;;
40675;SDS011;26359;48.750;9.314;2024-01-10T03:13:52;36.42;;;19.80;;
40675;SDS011;26359;48.750;9.314;2024-01-10T03:16:25;35.95;;;20.63;;
40675;SDS011;26359;48.750;9.314;2024-01-10T03:18:51;38.13;;;19.48;;
40675;SDS011;26359;48.750;9.314;2024-01-10T03:21:16;32.17;;;18.60;;
40675;SDS011;26359;48.750;9.314;2024-01-10T03:23:47;37.80;;;20.77;;
40675;SDS011;26359;48.750;9.314;2024-01-10T03:26:13;38.72;;;19.73;;
40675;SDS011;26359;48.750;9.314;2024-01-10T03:28:39;34.38;;;19.65;;
40675;SDS011;26359;48.750;9.314;2024-01-10T03:31:04;34.58;;;18.42;;
40675;SDS011;26359;48.750;9.314;2024-01-10T03:33:30;35.67;;;19.52;;
40675;SDS011;26359;48.750;9.314;2024-01-10T03:35:55;32.38;;;19.30;;
40675;SDS011;26359;48.750;9.314;2024-01-10T03:38:21;33.63;;;19.92;;
40675;SDS011;26359;48.750;9.314;2024-01-10T03:40:46;33.47;;;19.45;;
40675;SDS011;26359;48.750;9.314;2024-01-10T03:43:12;33.50;;;18.70;;
40675;SDS011;26359;48.750;9.314;2024-01-10T03:45:38;34.00;;;18.67;;
40675;SDS011;26359;48.750;9.314;2024-01-10T03:48:04;31.80;;;17.17;;
40675;SDS011;26359;48.750;9.314;2024-01-10T03:50:30;31.08;;;17.83;;
40675;SDS011;26359;48.750;9.314;2024-01-10T03:52:56;34.80;;;18.08;;
40675;SDS011;26359;48.750;9.314;2024-01-10T03:55:21;27.38;;;16.13;;
40675;SDS011;26359;48.750;9.314;2024-01-10T03:57:47;34.97;;;18.02;;
40675;SDS011;26359;48.750;9.314;2024-01-10T04:00:12;30.88;;;17.75;;
40675;SDS011;26359;48.750;9.314;2024-01-10T04:02:38;35.05;;;18.55;;
40675;SDS011;26359;48.750;9.314;2024-01-10T04:05:10;34.10;;;19.33;;
40675;SDS011;26359;48.750;9.314;2024-01-10T04:07:37;31.52;;;18.13;;
40675;SDS011;26359;48.750;9.314;2024-01-10T04:10:06;33.50;;;17.00;;
40675;SDS011;26359;48.750;9.314;2024-01-10T04:12:35;32.70;;;17.63;;
40675;SDS011;26359;48.750;9.314;2024-01-10T04:15:01;33.70;;;18.00;;
40675;SDS011;26359;48.750;9.314;2024-01-10T04:17:27;28.52;;;17.67;;
40675;SDS011;26359;48.750;9.314;2024-01-10T04:19:52;30.73;;;16.55;;
40675;SDS011;26359;48.750;9.314;2024-01-10T04:22:18;31.20;;;17.30;;
40675;SDS011;26359;48.750;9.314;2024-01-10T04:24:43;33.22;;;17.77;;
40675;SDS011;26359;48.750;9.314;2024-01-10T04:27:09;35.38;;;19.08;;
40675;SDS011;26359;48.750;9.314;2024-01-10T04:29:34;35.28;;;18.13;;
40675;SDS011;26359;48.750;9.314;2024-01-10T04:32:00;33.42;;;16.77;;
40675;SDS011;26359;48.750;9.314;2024-01-10T04:34:25;30.38;;;16.50;;
40675;SDS011;26359;48.750;9.314;2024-01-10T04:36:51;34.38;;;16.95;;
40675;SDS011;26359;48.750;9.314;2024-01-10T04:39:16;28.75;;;16.33;;
40675;SDS011;26359;48.750;9.314;2024-01-10T04:41:42;27.13;;;16.50;;
40675;SDS011;26359;48.750;9.314;2024-01-10T04:44:08;30.17;;;17.70;;
40675;SDS011;26359;48.750;9.314;2024-01-10T04:46:33;33.22;;;17.92;;
40675;SDS011;26359;48.750;9.314;2024-01-10T04:48:59;28.20;;;17.20;;
40675;SDS011;26359;48.750;9.314;2024-01-10T04:51:24;29.90;;;16.67;;
40675;SDS011;26359;48.750;9.314;2024-01-10T04:53:50;31.40;;;17.48;;
40675;SDS011;26359;48.750;9.314;2024-01-10T04:56:15;29.45;;;17.08;;
40675;SDS011;26359;48.750;9.314;2024-01-10T04:58:41;31.45;;;17.17;;
40675;SDS011;26359;48.750;9.314;2024-01-10T05:01:06;28.23;;;16.38;;
40675;SDS011;26359;48.750;9.314;2024-01-10T05:03:32;30.00;;;16.98;;
40675;SDS011;26359;48.750;9.314;2024-01-10T05:05:57;29.55;;;17.40;;
40675;SDS011;26359;48.750;9.314;2024-01-10T05:08:23;30.02;;;16.77;;
40675;SDS011;26359;48.750;9.314;2024-01-10T05:10:48;29.90;;;17.13;;
40675;SDS011;26359;48.750;9.314;2024-01-10T05:13:14;34.25;;;18.20;;
40675;SDS011;26359;48.750;9.314;2024-01-10T05:15:39;30.23;;;17.65;;
40675;SDS011;26359;48.750;9.314;2024-01-10T05:18:05;33.33;;;17.23;;
40675;SDS011;26359;48.750;9.314;2024-01-10T05:20:31;27.42;;;16.63;;
40675;SDS011;26359;48.750;9.314;2024-01-10T05:22:56;29.25;;;17.20;;
40675;SDS011;26359;48.750;9.314;2024-01-10T05:25:23;33.17;;;18.63;;
40675;SDS011;26359;48.750;9.314;2024-01-10T05:27:49;30.40;;;17.85;;
40675;SDS011;26359;48.750;9.314;2024-01-10T05:30:15;32.83;;;17.67;;
40675;SDS011;26359;48.750;9.314;2024-01-10T05:32:41;31.90;;;18.20;;
40675;SDS011;26359;48.750;9.314;2024-01-10T05:35:08;34.03;;;17.50;;
40675;SDS011;26359;48.750;9.314;2024-01-10T05:37:35;32.95;;;18.40;;
40675;SDS011;26359;48.750;9.314;2024-01-10T05:40:01;34.88;;;18.20;;
40675;SDS011;26359;48.750;9.314;2024-01-10T05:42:26;30.58;;;17.52;;
40675;SDS011;26359;48.750;9.314;2024-01-10T05:44:52;32.40;;;18.45;;
40675;SDS011;26359;48.750;9.314;2024-01-10T05:47:18;34.60;;;18.13;;
40675;SDS011;26359;48.750;9.314;2024-01-10T05:49:43;33.33;;;18.15;;
40675;SDS011;26359;48.750;9.314;2024-01-10T05:52:09;32.72;;;18.50;;
40675;SDS011;26359;48.750;9.314;2024-01-10T05:54:34;34.78;;;18.77;;
40675;SDS011;26359;48.750;9.314;2024-01-10T05:57:00;31.95;;;17.60;;
40675;SDS011;26359;48.750;9.314;2024-01-10T05:59:26;31.50;;;17.73;;
40675;SDS011;26359;48.750;9.314;2024-01-10T06:01:51;37.47;;;19.38;;
40675;SDS011;26359;48.750;9.314;2024-01-10T06:04:17;31.65;;;18.30;;
40675;SDS011;26359;48.750;9.314;2024-01-10T06:06:42;34.65;;;19.02;;
40675;SDS011;26359;48.750;9.314;2024-01-10T06:09:09;33.85;;;19.52;;
40675;SDS011;26359;48.750;9.314;2024-01-10T06:11:40;33.25;;;18.30;;
40675;SDS011;26359;48.750;9.314;2024-01-10T06:14:08;31.35;;;18.92;;
40675;SDS011;26359;48.750;9.314;2024-01-10T06:16:34;34.40;;;18.55;;
40675;SDS011;26359;48.750;9.314;2024-01-10T06:19:00;32.40;;;18.85;;
40675;SDS011;26359;48.750;9.314;2024-01-10T06:21:26;32.00;;;19.02;;
40675;SDS011;26359;48.750;9.314;2024-01-10T06:23:51;35.55;;;19.10;;
40675;SDS011;26359;48.750;9.314;2024-01-10T06:26:16;34.30;;;18.83;;
40675;SDS011;26359;48.750;9.314;2024-01-10T06:28:42;32.60;;;17.95;;
40675;SDS011;26359;48.750;9.314;2024-01-10T06:31:08;36.08;;;19.92;;
40675;SDS011;26359;48.750;9.314;2024-01-10T06:33:33;34.80;;;20.83;;
40675;SDS011;26359;48.750;9.314;2024-01-10T06:35:59;34.38;;;19.42;;
40675;SDS011;26359;48.750;9.314;2024-01-10T06:38:24;39.65;;;22.25;;
40675;SDS011;26359;48.750;9.314;2024-01-10T06:40:50;36.20;;;19.75;;
40675;SDS011;26359;48.750;9.314;2024-01-10T06:43:16;38.08;;;20.27;;
40675;SDS011;26359;48.750;9.314;2024-01-10T06:45:41;35.95;;;19.92;;
40675;SDS011;26359;48.750;9.314;2024-01-10T06:48:07;35.88;;;19.13;;
40675;SDS011;26359;48.750;9.314;2024-01-10T06:50:33;38.42;;;20.27;;
40675;SDS011;26359;48.750;9.314;2024-01-10T06:52:58;36.72;;;20.35;;
40675;SDS011;26359;48.750;9.314;2024-01-10T06:55:24;34.83;;;19.40;;
40675;SDS011;26359;48.750;9.314;2024-01-10T06:57:50;37.35;;;21.10;;
40675;SDS011;26359;48.750;9.314;2024-01-10T07:00:18;36.03;;;20.00;;
40675;SDS011;26359;48.750;9.314;2024-01-10T07:02:45;38.22;;;20.25;;
40675;SDS011;26359;48.750;9.314;2024-01-10T07:05:10;35.38;;;19.23;;
40675;SDS011;26359;48.750;9.314;2024-01-10T07:07:36;38.70;;;20.35;;
40675;SDS011;26359;48.750;9.314;2024-01-10T07:10:01;35.58;;;20.08;;
40675;SDS011;26359;48.750;9.314;2024-01-10T07:12:33;37.00;;;21.20;;
40675;SDS011;26359;48.750;9.314;2024-01-10T07:14:59;36.17;;;21.02;;
40675;SDS011;26359;48.750;9.314;2024-01-10T07:17:25;39.60;;;20.88;;
40675;SDS011;26359;48.750;9.314;2024-01-10T07:19:50;39.60;;;21.38;;
40675;SDS011;26359;48.750;9.314;2024-01-10T07:22:16;36.00;;;20.25;;
40675;SDS011;26359;48.750;9.314;2024-01-10T07:24:45;35.97;;;21.50;;
40675;SDS011;26359;48.750;9.314;2024-01-10T07:27:11;42.28;;;22.90;;
40675;SDS011;26359;48.750;9.314;2024-01-10T07:29:39;40.58;;;22.92;;
40675;SDS011;26359;48.750;9.314;2024-01-10T07:32:05;38.05;;;22.85;;
40675;SDS011;26359;48.750;9.314;2024-01-10T07:34:34;38.45;;;23.10;;
40675;SDS011;26359;48.750;9.314;2024-01-10T07:37:00;40.03;;;23.08;;
40675;SDS011;26359;48.750;9.314;2024-01-10T07:39:25;37.50;;;21.35;;
40675;SDS011;26359;48.750;9.314;2024-01-10T07:41:51;39.90;;;23.40;;
40675;SDS011;26359;48.750;9.314;2024-01-10T07:44:16;36.85;;;20.58;;
40675;SDS011;26359;48.750;9.314;2024-01-10T07:46:42;45.38;;;23.60;;
40675;SDS011;26359;48.750;9.314;2024-01-10T07:49:07;40.28;;;22.30;;
40675;SDS011;26359;48.750;9.314;2024-01-10T07:51:33;39.60;;;22.00;;
40675;SDS011;26359;48.750;9.314;2024-01-10T07:53:59;38.60;;;21.50;;
40675;SDS011;26359;48.750;9.314;2024-01-10T07:56:24;38.85;;;21.95;;
40675;SDS011;26359;48.750;9.314;2024-01-10T07:58:50;40.47;;;26.67;;
40675;SDS011;26359;48.750;9.314;2024-01-10T08:01:16;42.60;;;24.15;;
40675;SDS011;26359;48.750;9.314;2024-01-10T08:03:42;42.17;;;22.55;;
40675;SDS011;26359;48.750;9.314;2024-01-10T08:06:08;37.83;;;24.27;;
40675;SDS011;26359;48.750;9.314;2024-01-10T08:08:35;40.67;;;24.42;;
40675;SDS011;26359;48.750;9.314;2024-01-10T08:11:01;41.83;;;23.60;;
40675;SDS011;26359;48.750;9.314;2024-01-10T08:13:27;38.58;;;22.67;;
40675;SDS011;26359;48.750;9.314;2024-01-10T08:15:52;42.05;;;24.38;;
40675;SDS011;26359;48.750;9.314;2024-01-10T08:18:19;41.92;;;22.65;;
40675;SDS011;26359;48.750;9.314;2024-01-10T08:20:44;40.28;;;21.65;;
40675;SDS011;26359;48.750;9.314;2024-01-10T08:23:10;40.17;;;21.50;;
40675;SDS011;26359;48.750;9.314;2024-01-10T08:25:35;38.65;;;21.65;;
40675;SDS011;26359;48.750;9.314;2024-01-10T08:28:01;38.17;;;21.60;;
40675;SDS011;26359;48.750;9.314;2024-01-10T08:30:27;38.88;;;22.38;;
40675;SDS011;26359;48.750;9.314;2024-01-10T08:32:52;39.88;;;22.92;;
40675;SDS011;26359;48.750;9.314;2024-01-10T08:35:18;36.15;;;22.20;;
40675;SDS011;26359;48.750;9.314;2024-01-10T08:37:44;40.55;;;21.52;;
40675;SDS011;26359;48.750;9.314;2024-01-10T08:40:11;40.92;;;21.50;;
40675;SDS011;26359;48.750;9.314;2024-01-10T08:42:39;40.67;;;23.08;;
40675;SDS011;26359;48.750;9.314;2024-01-10T08:45:05;36.50;;;22.55;;
40675;SDS011;26359;48.750;9.314;2024-01-10T08:47:34;39.60;;;21.67;;
40675;SDS011;26359;48.750;9.314;2024-01-10T08:50:00;40.53;;;23.40;;
40675;SDS011;26359;48.750;9.314;2024-01-10T08:52:27;42.67;;;22.85;;
40675;SDS011;26359;48.750;9.314;2024-01-10T08:54:52;38.33;;;22.50;;
40675;SDS011;26359;48.750;9.314;2024-01-10T08:57:18;38.78;;;22.83;;
40675;SDS011;26359;48.750;9.314;2024-01-10T08:59:43;41.45;;;23.20;;
40675;SDS011;26359;48.750;9.314;2024-01-10T09:02:09;47.50;;;23.20;;
40675;SDS011;26359;48.750;9.314;2024-01-10T09:04:35;46.85;;;24.15;;
40675;SDS011;26359;48.750;9.314;2024-01-10T09:07:01;42.78;;;25.08;;
40675;SDS011;26359;48.750;9.314;2024-01-10T09:09:26;42.45;;;24.58;;
40675;SDS011;26359;48.750;9.314;2024-01-10T09:11:52;42.33;;;24.13;;
40675;SDS011;26359;48.750;9.314;2024-01-10T09:14:18;41.97;;;25.25;;
40675;SDS011;26359;48.750;9.314;2024-01-10T09:16:44;41.92;;;25.27;;
40675;SDS011;26359;48.750;9.314;2024-01-10T09:19:10;42.53;;;24.58;;
40675;SDS011;26359;48.750;9.314;2024-01-10T09:21:35;43.08;;;23.38;;
40675;SDS011;26359;48.750;9.314;2024-01-10T09:24:01;44.95;;;24.58;;
40675;SDS011;26359;48.750;9.314;2024-01-10T09:26:30;45.20;;;22.83;;
40675;SDS011;26359;48.750;9.314;2024-01-10T09:28:56;43.10;;;23.35;;
40675;SDS011;26359;48.750;9.314;2024-01-10T09:31:21;43.78;;;24.70;;
40675;SDS011;26359;48.750;9.314;2024-01-10T09:33:46;41.38;;;24.58;;
40675;SDS011;26359;48.750;9.314;2024-01-10T09:36:12;40.63;;;23.75;;
40675;SDS011;26359;48.750;9.314;2024-01-10T09:38:39;46.65;;;25.42;;
40675;SDS011;26359;48.750;9.314;2024-01-10T09:41:05;41.28;;;24.88;;
40675;SDS011;26359;48.750;9.314;2024-01-10T09:43:30;45.83;;;24.55;;
40675;SDS011;26359;48.750;9.314;2024-01-10T09:45:57;42.58;;;25.63;;
40675;SDS011;26359;48.750;9.314;2024-01-10T09:48:24;42.95;;;24.15;;
40675;SDS011;26359;48.750;9.314;2024-01-10T09:50:50;40.88;;;25.55;;
40675;SDS011;26359;48.750;9.314;2024-01-10T09:53:26;42.38;;;25.20;;
40675;SDS011;26359;48.750;9.314;2024-01-10T09:55:52;40.47;;;24.23;;
40675;SDS011;26359;48.750;9.314;2024-01-10T09:58:21;42.97;;;24.58;;
40675;SDS011;26359;48.750;9.314;2024-01-10T10:00:48;41.00;;;24.85;;
40675;SDS011;26359;48.750;9.314;2024-01-10T10:03:13;43.30;;;23.45;;
40675;SDS011;26359;48.750;9.314;2024-01-10T10:05:42;41.83;;;24.15;;
40675;SDS011;26359;48.750;9.314;2024-01-10T10:08:07;41.85;;;23.95;;
40675;SDS011;26359;48.750;9.314;2024-01-10T10:10:35;39.28;;;24.38;;
40675;SDS011;26359;48.750;9.314;2024-01-10T10:13:01;39.50;;;23.42;;
40675;SDS011;26359;48.750;9.314;2024-01-10T10:15:27;43.10;;;24.30;;
40675;SDS011;26359;48.750;9.314;2024-01-10T10:17:53;39.42;;;23.73;;
40675;SDS011;26359;48.750;9.314;2024-01-10T10:20:20;41.58;;;24.73;;
40675;SDS011;26359;48.750;9.314;2024-01-10T10:22:57;47.03;;;26.27;;
40675;SDS011;26359;48.750;9.314;2024-01-10T10:25:44;39.92;;;23.65;;
40675;SDS011;26359;48.750;9.314;2024-01-10T10:30:36;40.90;;;24.55;;
40675;SDS011;26359;48.750;9.314;2024-01-10T10:33:02;43.72;;;25.10;;
40675;SDS011;26359;48.750;9.314;2024-01-10T10:35:28;39.75;;;24.55;;
40675;SDS011;26359;48.750;9.314;2024-01-10T10:37:54;40.60;;;25.73;;
40675;SDS011;26359;48.750;9.314;2024-01-10T10:40:20;40.80;;;25.67;;
40675;SDS011;26359;48.750;9.314;2024-01-10T10:42:47;41.70;;;26.55;;
40675;SDS011;26359;48.750;9.314;2024-01-10T10:45:14;41.35;;;25.92;;
40675;SDS011;26359;48.750;9.314;2024-01-10T10:47:42;40.22;;;24.85;;
40675;SDS011;26359;48.750;9.314;2024-01-10T10:50:12;71.57;;;25.65;;
40675;SDS011;26359;48.750;9.314;2024-01-10T10:52:41;40.22;;;24.13;;
40675;SDS011;26359;48.750;9.314;2024-01-10T10:55:12;42.55;;;25.10;;
40675;SDS011;26359;48.750;9.314;2024-01-10T10:57:46;43.00;;;25.73;;
40675;SDS011;26359;48.750;9.314;2024-01-10T11:00:13;40.97;;;25.08;;
40675;SDS011;26359;48.750;9.314;2024-01-10T11:02:43;42.25;;;25.42;;
40675;SDS011;26359;48.750;9.314;2024-01-10T11:05:11;43.38;;;26.60;;
40675;SDS011;26359;48.750;9.314;2024-01-10T11:07:41;45.05;;;25.95;;
40675;SDS011;26359;48.750;9.314;2024-01-10T11:10:13;43.42;;;26.30;;
40675;SDS011;26359;48.750;9.314;2024-01-10T11:18:18;42.97;;;25.83;;
40675;SDS011;26359;48.750;9.314;2024-01-10T11:23:43;44.47;;;26.85;;
40675;SDS011;26359;48.750;9.314;2024-01-10T11:26:14;42.55;;;26.77;;
40675;SDS011;26359;48.750;9.314;2024-01-10T11:28:40;43.05;;;26.40;;
40675;SDS011;26359;48.750;9.314;2024-01-10T11:31:07;42.83;;;26.38;;
40675;SDS011;26359;48.750;9.314;2024-01-10T11:33:39;41.70;;;26.20;;
40675;SDS011;26359;48.750;9.314;2024-01-10T11:36:10;41.33;;;26.15;;
40675;SDS011;26359;48.750;9.314;2024-01-10T11:38:53;43.20;;;27.15;;
40675;SDS011;26359;48.750;9.314;2024-01-10T11:41:32;40.15;;;25.83;;
40675;SDS011;26359;48.750;9.314;2024-01-10T11:46:45;46.08;;;27.27;;
40675;SDS011;26359;48.750;9.314;2024-01-10T11:49:12;45.42;;;28.13;;
40675;SDS011;26359;48.750;9.314;2024-01-10T11:51:43;45.97;;;26.35;;
40675;SDS011;26359;48.750;9.314;2024-01-10T11:57:28;44.83;;;26.23;;
40675;SDS011;26359;48.750;9.314;2024-01-10T11:59:54;44.08;;;27.95;;
40675;SDS011;26359;48.750;9.314;2024-01-10T12:02:23;48.42;;;28.67;;
40675;SDS011;26359;48.750;9.314;2024-01-10T12:04:51;45.45;;;26.55;;
40675;SDS011;26359;48.750;9.314;2024-01-10T12:07:17;44.63;;;26.17;;
40675;SDS011;26359;48.750;9.314;2024-01-10T12:09:43;42.75;;;26.27;;
40675;SDS011;26359;48.750;9.314;2024-01-10T12:12:09;41.15;;;25.73;;
40675;SDS011;26359;48.750;9.314;2024-01-10T12:14:36;43.90;;;25.98;;
40675;SDS011;26359;48.750;9.314;2024-01-10T12:17:01;39.90;;;25.95;;
40675;SDS011;26359;48.750;9.314;2024-01-10T12:19:29;44.33;;;26.05;;
40675;SDS011;26359;48.750;9.314;2024-01-10T12:21:55;43.42;;;25.92;;
40675;SDS011;26359;48.750;9.314;2024-01-10T12:24:21;43.33;;;25.98;;
40675;SDS011;26359;48.750;9.314;2024-01-10T12:26:47;42.75;;;26.80;;
40675;SDS011;26359;48.750;9.314;2024-01-10T12:29:13;43.80;;;26.17;;
40675;SDS011;26359;48.750;9.314;2024-01-10T12:31:42;42.58;;;26.90;;
40675;SDS011;26359;48.750;9.314;2024-01-10T12:34:10;39.20;;;23.88;;
40675;SDS011;26359;48.750;9.314;2024-01-10T12:36:36;40.22;;;25.25;;
40675;SDS011;26359;48.750;9.314;2024-01-10T12:39:01;41.67;;;25.42;;
40675;SDS011;26359;48.750;9.314;2024-01-10T12:41:28;43.38;;;25.50;;
40675;SDS011;26359;48.750;9.314;2024-01-10T12:43:53;41.47;;;25.35;;
40675;SDS011;26359;48.750;9.314;2024-01-10T12:46:22;41.13;;;25.48;;
40675;SDS011;26359;48.750;9.314;2024-01-10T12:49:00;40.90;;;26.02;;
40675;SDS011;26359;48.750;9.314;2024-01-10T12:51:32;42.65;;;26.00;;
40675;SDS011;26359;48.750;9.314;2024-01-10T12:54:01;42.92;;;26.17;;
40675;SDS011;26359;48.750;9.314;2024-01-10T12:56:27;43.20;;;26.15;;
40675;SDS011;26359;48.750;9.314;2024-01-10T12:58:53;42.03;;;25.23;;
40675;SDS011;26359;48.750;9.314;2024-01-10T13:01:22;46.03;;;26.92;;
40675;SDS011;26359;48.750;9.314;2024-01-10T13:03:48;44.05;;;25.02;;
40675;SDS011;26359;48.750;9.314;2024-01-10T13:06:14;41.15;;;25.88;;
40675;SDS011;26359;48.750;9.314;2024-01-10T13:08:41;42.45;;;25.63;;
40675;SDS011;26359;48.750;9.314;2024-01-10T13:11:07;43.95;;;26.95;;
40675;SDS011;26359;48.750;9.314;2024-01-10T13:13:34;43.47;;;25.83;;
40675;SDS011;26359;48.750;9.314;2024-01-10T13:16:01;40.33;;;25.75;;
40675;SDS011;26359;48.750;9.314;2024-01-10T13:18:27;42.20;;;25.98;;
40675;SDS011;26359;48.750;9.314;2024-01-10T13:20:53;44.88;;;26.58;;
40675;SDS011;26359;48.750;9.314;2024-01-10T13:23:20;39.17;;;25.33;;
40675;SDS011;26359;48.750;9.314;2024-01-10T13:25:48;46.90;;;25.92;;
40675;SDS011;26359;48.750;9.314;2024-01-10T13:28:13;42.47;;;25.65;;
40675;SDS011;26359;48.750;9.314;2024-01-10T13:30:40;44.55;;;25.65;;
40675;SDS011;26359;48.750;9.314;2024-01-10T13:33:07;43.92;;;27.55;;
40675;SDS011;26359;48.750;9.314;2024-01-10T13:35:34;44.70;;;25.90;;
40675;SDS011;26359;48.750;9.314;2024-01-10T13:38:03;44.03;;;26.23;;
40675;SDS011;26359;48.750;9.314;2024-01-10T13:40:29;44.83;;;26.65;;
40675;SDS011;26359;48.750;9.314;2024-01-10T13:42:56;41.20;;;25.92;;
40675;SDS011;26359;48.750;9.314;2024-01-10T13:45:22;44.83;;;26.02;;
40675;SDS011;26359;48.750;9.314;2024-01-10T13:47:48;42.30;;;25.83;;
40675;SDS011;26359;48.750;9.314;2024-01-10T13:50:14;43.45;;;27.35;;
40675;SDS011;26359;48.750;9.314;2024-01-10T13:52:40;45.92;;;26.35;;
40675;SDS011;26359;48.750;9.314;2024-01-10T13:55:05;41.30;;;26.40;;
40675;SDS011;26359;48.750;9.314;2024-01-10T13:57:32;46.17;;;26.33;;
40675;SDS011;26359;48.750;9.314;2024-01-10T13:59:58;42.55;;;26.35;;
40675;SDS011;26359;48.750;9.314;2024-01-10T14:02:23;41.25;;;26.55;;
40675;SDS011;26359;48.750;9.314;2024-01-10T14:04:49;42.38;;;27.25;;
40675;SDS011;26359;48.750;9.314;2024-01-10T14:07:15;43.05;;;26.17;;
40675;SDS011;26359;48.750;9.314;2024-01-10T14:09:41;45.28;;;27.08;;
40675;SDS011;26359;48.750;9.314;2024-01-10T14:12:06;46.85;;;27.50;;
40675;SDS011;26359;48.750;9.314;2024-01-10T14:14:32;43.15;;;26.65;;
40675;SDS011;26359;48.750;9.314;2024-01-10T14:16:58;40.10;;;25.35;;
40675;SDS011;26359;48.750;9.314;2024-01-10T14:19:23;40.35;;;25.65;;
40675;SDS011;26359;48.750;9.314;2024-01-10T14:21:49;43.28;;;26.40;;
40675;SDS011;26359;48.750;9.314;2024-01-10T14:24:14;42.72;;;25.60;;
40675;SDS011;26359;48.750;9.314;2024-01-10T14:26:41;42.60;;;25.85;;
40675;SDS011;26359;48.750;9.314;2024-01-10T14:29:06;44.28;;;25.42;;
40675;SDS011;26359;48.750;9.314;2024-01-10T14:31:32;42.05;;;24.88;;
40675;SDS011;26359;48.750;9.314;2024-01-10T14:33:58;41.35;;;25.42;;